x

Sentry Shoal (46131) Wave Buoy

9:00pm - Thu 23rd Feb 2017 All times are PST. -8 hours from GMT.

  • Sig Wave height 0.7ft
  • Peak Period 2s
  • Wind
    11mph, 13mph gusts
  • Sea Temp 44°f
  • Air Temp 40°f
  • Sea Pressure 1021.4mb
  • Sentry Shoal
  • Sentry Shoal

More Historic Weather Station data

Upgrade to MSW Pro to gain access to the past 30 days of data for over 8000 Wavebouys and Weather Stations around the globe.

Join Pro

Comparision Forecast

View Surf forecast
   
Thu 02/23 9:00pm 0.7ft 2s 11 13 mph 1021.4mb 44f 40f
8:00pm 1ft 2s 11 13 mph 1021.7mb 44f 41f
7:00pm 1ft 2s 13 16 mph 1021.9mb 44f 41f
5:00pm 0.3ft 4s 7 13 mph 1022.5mb 44f 42f
4:00pm 0.3ft 4s 4
mph
1022.9mb 45f 41f
3:00pm 0.3ft 4s 2 4 mph 1023.2mb 45f 42f
2:00pm 0.3ft 4s 2 4 mph 1023.5mb 45f 40f
1:00pm 0.3ft 5s 2 4 mph 1024.2mb 45f 40f
12:00pm 0.3ft 2s 4 7 mph 1025.1mb 44f 39f
11:00am 0.7ft 2s 9 11 mph 1025.6mb 44f 38f
10:00am 0.7ft 2s 7 9 mph 1025.8mb 44f 38f
9:00am 1ft 3s 9 11 mph 1025.4mb 44f 37f
8:00am 0.7ft 2s 11 13 mph 1025.2mb 44f 37f
7:00am 1ft 2s 13 16 mph 1024.9mb 44f 37f
6:00am 1ft 2s 13 16 mph 1024.6mb 44f 37f
5:00am 1ft 2s 13 18 mph 1024.4mb 44f 38f
4:00am 1ft 2s 13 16 mph 1024.3mb 44f 38f
3:00am 1ft 2s 13 18 mph 1024.1mb 44f 39f
2:00am 1ft 3s 13 16 mph 1024.1mb 44f 39f
Wed 02/22 2:00am 0.7ft 2s 7 9 mph 1021.1mb 44f 40f
1:00am 1ft 2s 9 11 mph 1020.8mb 44f 40f
12:00am 1ft 2s 13 16 mph 1020.3mb 44f 40f
Tue 02/21 11:00pm 1.3ft 3s 13 18 mph 1019.8mb 44f 40f
10:00pm 0.3ft 2s 13 20 mph 1019.3mb 44f 41f
9:00pm 0.3ft 2s 9 11 mph 1018.7mb 44f 42f
8:00pm 0.3ft 2s 7 9 mph 1017.8mb 44f 43f
7:00pm 0.3ft 3s 4 9 mph 1017.4mb 44f 45f
6:00pm 0.3ft 3s 4 7 mph 1016.6mb 45f 45f
5:00pm 0.3ft 2s 4 7 mph 1016mb 45f 45f
4:00pm 0.3ft 2s 4
mph
1015.5mb 45f 45f
3:00pm 0.3ft 2s 4
mph
1015mb 45f 46f
2:00pm 0.3ft 2s 2 4 mph 1014.5mb 45f 44f
1:00pm 0.7ft 2s 9 13 mph 1014.1mb 45f 43f
12:00pm 0.7ft 2s 9 11 mph 1014mb 45f 41f
11:00am 0.7ft 2s 11 13 mph 1013.6mb 44f 40f
10:00am 0.7ft 2s 11 13 mph 1012.8mb 44f 39f
9:00am 1ft 2s 13
mph
1012mb 44f 38f
8:00am 0.7ft 2s 13 16 mph 1011.3mb 44f 38f
7:00am 1ft 3s 13 16 mph 1010.4mb 44f 38f
6:00am 1ft 3s 13 18 mph 1009.7mb 44f 38f
5:00am 0.7ft 2s 16 18 mph 1009.3mb 44f 39f
4:00am 0.3ft 2s 11 13 mph 1009.2mb 44f 40f
3:00am 0.3ft 2s 11
mph
1009.1mb 44f 40f
2:00am 0.3ft 2s 11 13 mph 1008.8mb 44f 40f
1:00am 0.7ft 2s 9
mph
1008.5mb 44f 40f
12:00am 0.7ft 2s 11 13 mph 1008mb 44f 41f
Mon 02/20 11:00pm 0.7ft 2s 9 11 mph 1007.5mb 44f 42f
10:00pm 0.3ft 2s 9 11 mph 1007.1mb 44f 42f
9:00pm 0.3ft 4s 7 9 mph 1007mb 44f 42f
8:00pm 0.3ft 4s 4
mph
1006.6mb 44f 43f
7:00pm 0.3ft 4s 4
mph
1006.2mb 44f 43f
6:00pm 0.3ft 4s 2 4 mph 1005.6mb 45f 44f
5:00pm 0.3ft 4s 4
mph
1005.2mb 45f 44f
4:00pm 0.3ft 2s 2
mph
1004.7mb 45f 46f
3:00pm 0.3ft 2s 4 7 mph 1004.1mb 45f 44f
2:00pm 0.7ft 2s 9
mph
1003.5mb 45f 43f
1:00pm 0.7ft 2s 11 13 mph 1003.1mb 45f 42f
12:00pm 0.7ft 2s 11 13 mph 1002.9mb 45f 42f
11:00am 0.7ft 2s 11 13 mph 1002.6mb 44f 41f
10:00am 0.7ft 2s 11
mph
1002.4mb 44f 40f
9:00am 0.7ft 2s 9 11 mph 1001.8mb 44f 40f
8:00am 0.7ft 2s 11 13 mph 1001.4mb 44f 40f
7:00am 0.7ft 2s 9 11 mph 1001.1mb 44f 40f